Mega Smeralda — ICIU — position and weather

sailwx.info

Track history (hours):
 
Tides and Currents Weather Stations Pressure Air Temp Water Temp Dewpoint Dewpoint Depression Visibility Wind Speed Wind Dir Waves Ship Positions

Mega Smeralda

Last reported at 2014-Sep-21 21:34 UTC. Time now 2014-Sep-21 22:12 UTC.
Position N 42°44' E 006°35'.

Length 171 m; draft 6.3 m.

Type: Passenger vessel. MMSI: 247228600.

Date/timePositionNaut miles runAvg speedWind from/ knotsBaromVisibWave heightAir tempDewpointWater temp
2014-Sep-21 21:34N 42°44' E 006°35'1514.8
2014-Sep-21 20:33N 42°52' E 006°18'1515.1
2014-Sep-21 19:34N 43°01' E 006°01'7 7.1
2014-Sep-21 18:32N 43°07' E 005°56'0 0.0
2014-Sep-21 17:33N 43°07' E 005°56'0 0.0
2014-Sep-21 16:33N 43°07' E 005°56'0 0.0
2014-Sep-21 15:33N 43°07' E 005°56'0 0.0
2014-Sep-21 14:32N 43°07' E 005°56'0 0.0
2014-Sep-21 13:33N 43°07' E 005°56'0 0.0
2014-Sep-21 12:32N 43°07' E 005°56'0 0.0
2014-Sep-21 11:33N 43°07' E 005°56'0 0.0
2014-Sep-21 10:30N 43°07' E 005°56'0 0.0
2014-Sep-21 09:33N 43°07' E 005°56'0 0.0
2014-Sep-21 08:33N 43°07' E 005°56'0 0.0
2014-Sep-21 07:34N 43°07' E 005°56'0 0.0
2014-Sep-21 06:34N 43°07' E 005°56'9 9.5
2014-Sep-21 05:33N 42°59' E 006°03'1817.7
2014-Sep-21 04:33N 42°56' E 006°27'1919.3
2014-Sep-21 03:33N 42°58' E 006°53'1919.1
2014-Sep-21 02:33N 42°59' E 007°19'1919.2
2014-Sep-21 01:33N 42°60' E 007°45'1919.3
2014-Sep-21 00:33N 43°01' E 008°11'1919.2
2014-Sep-20 23:33N 43°02' E 008°38'2119.1
2014-Sep-20 22:28N 43°03' E 009°06'1718.3
2014-Sep-20 21:32N 43°02' E 009°30'7 2.3
2014-Sep-20 18:24N 42°55' E 009°33'1618.6
2014-Sep-20 17:33N 43°06' E 009°18'2020.3
2014-Sep-20 16:33N 43°13' E 008°52'2019.9
2014-Sep-20 15:33N 43°19' E 008°26'2119.3
2014-Sep-20 14:29N 43°28' E 007°60'1819.4
2014-Sep-20 13:33N 43°34' E 007°37'1616.0
2014-Sep-20 12:33N 43°42' E 007°17'2 2.4
2014-Sep-20 11:33N 43°39' E 007°19'4020.2
2014-Sep-20 09:33N 43°24' E 008°10'2020.4
2014-Sep-20 08:33N 43°18' E 008°37'1919.5
2014-Sep-20 07:33N 43°10' E 009°01'1919.3
2014-Sep-20 06:33N 43°03' E 009°26'9 2.5
2014-Sep-20 03:09N 42°55' E 009°31'1117.5
2014-Sep-20 02:31N 43°04' E 009°22'10019.2
2014-Sep-19 21:20N 42°58' E 007°06'1418.6
2014-Sep-19 20:33N 42°57' E 006°46'1818.0
2014-Sep-19 19:33N 42°56' E 006°21'1616.1
2014-Sep-19 18:33N 43°02' E 006°01'6 6.4
2014-Sep-19 17:33N 43°07' E 005°56'0 0.0
2014-Sep-19 16:33N 43°07' E 005°56'2 1.9
2014-Sep-19 15:33N 43°05' E 005°57'1616.1
2014-Sep-19 14:33N 42°53' E 006°12'1717.3
2014-Sep-19 13:33N 42°44' E 006°32'7 0.4
2014-Sep-18 21:33N 42°50' E 006°28'1515.2
2014-Sep-18 20:33N 42°56' E 006°09'1413.6
2014-Sep-18 19:33N 43°05' E 005°56'2 1.8
2014-Sep-18 18:33N 43°07' E 005°56'1 1.2
2014-Sep-18 17:33N 43°06' E 005°55'1514.8
2014-Sep-18 16:33N 42°55' E 006°09'1817.9
2014-Sep-18 15:33N 42°46' E 006°30'1918.1
2014-Sep-18 14:32N 42°36' E 006°51'1818.1
2014-Sep-18 13:33N 42°27' E 007°12'39 2.4
2014-Sep-17 21:15N 42°48' E 006°27'1115.7
2014-Sep-17 20:33N 42°53' E 006°14'1515.0
2014-Sep-17 19:33N 43°03' E 005°59'4 4.1
2014-Sep-17 18:33N 43°07' E 005°56'0 0.0
2014-Sep-17 17:33N 43°07' E 005°56'0 0.0
2014-Sep-17 16:33N 43°07' E 005°56'0 0.0
2014-Sep-17 15:32N 43°07' E 005°56'0 0.0
2014-Sep-17 14:32N 43°07' E 005°56'0 0.0
2014-Sep-17 13:29N 43°07' E 005°56'0 0.0
2014-Sep-17 12:32N 43°07' E 005°56'0 0.0
2014-Sep-17 11:11N 43°07' E 005°56'0 0.0
2014-Sep-17 10:30N 43°07' E 005°56'0 0.0
2014-Sep-17 09:33N 43°07' E 005°56'0 0.0
2014-Sep-17 08:32N 43°07' E 005°56'0 0.0
2014-Sep-17 07:33N 43°07' E 005°56'0 0.0
2014-Sep-17 06:33N 43°07' E 005°56'0 0.0
2014-Sep-17 05:33N 43°07' E 005°56'5 4.6
2014-Sep-17 04:34N 43°03' E 005°60'1111.4
2014-Sep-17 03:34N 42°55' E 006°10'1212.2
2014-Sep-17 02:33N 42°48' E 006°24'1212.4
2014-Sep-17 01:33N 42°41' E 006°38'1312.6
2014-Sep-17 00:33N 42°35' E 006°53'1312.4
2014-Sep-16 23:32N 42°28' E 007°08'2512.1
2014-Sep-16 21:26N 42°15' E 007°37'1416.1
2014-Sep-16 20:33N 42°07' E 007°53'1818.0
2014-Sep-16 19:34N 41°58' E 008°14'17 3.9
2014-Sep-16 15:08N 41°50' E 008°34'10117.8
2014-Sep-16 09:27N 42°37' E 006°34'1617.5
2014-Sep-16 08:33N 42°45' E 006°15'1716.6
2014-Sep-16 07:33N 42°59' E 006°02'9 9.5
2014-Sep-16 06:33N 43°07' E 005°56'0 0.0
2014-Sep-16 05:33N 43°07' E 005°56'6 6.1
2014-Sep-16 04:33N 43°02' E 005°60'1514.6
2014-Sep-16 03:33N 42°57' E 006°19'1717.0
2014-Sep-16 02:33N 42°56' E 006°42'1716.9
2014-Sep-16 01:33N 42°58' E 007°05'2516.7
2014-Sep-16 00:04N 42°59' E 007°39'1617.1
2014-Sep-15 23:07N 43°00' E 008°01'1217.1
2014-Sep-15 22:25N 43°01' E 008°17'1517.0
2014-Sep-15 21:31N 43°02' E 008°38'2017.1
2014-Sep-15 20:19N 43°02' E 009°06'1316.8
2014-Sep-15 19:31N 43°03' E 009°24'104 4.7
2014-Sep-14 21:19N 42°57' E 007°02'1317.3
2014-Sep-14 20:33N 42°57' E 006°44'1717.1
2014-Sep-14 19:34N 42°56' E 006°21'1615.9
2014-Sep-14 18:33N 43°02' E 006°00'6 6.1
2014-Sep-14 17:33N 43°07' E 005°56'0 0.0
2014-Sep-14 16:32N 43°07' E 005°56'0 0.0
2014-Sep-14 15:33N 43°07' E 005°56'0 0.0
2014-Sep-14 14:31N 43°07' E 005°56'0 0.0
2014-Sep-14 13:33N 43°07' E 005°56'0 0.0
2014-Sep-14 12:31N 43°07' E 005°56'0 0.0
2014-Sep-14 11:33N 43°07' E 005°56'0 0.0
2014-Sep-14 10:33N 43°07' E 005°56'0 0.0
2014-Sep-14 09:33N 43°07' E 005°56'0 0.0
2014-Sep-14 08:33N 43°07' E 005°56'0 0.0
2014-Sep-14 07:33N 43°07' E 005°56'0 0.0
2014-Sep-14 06:33N 43°07' E 005°56'7 6.7
2014-Sep-14 05:33N 43°01' E 006°01'1817.8
2014-Sep-14 04:33N 42°56' E 006°24'1918.8
2014-Sep-14 03:33N 42°57' E 006°50'1818.1
2014-Sep-14 02:33N 42°58' E 007°15'9518.6
2014-Sep-13 21:27N 43°03' E 009°25'20 3.8
2014-Sep-13 16:13N 43°21' E 009°13'1319.6
2014-Sep-13 15:33N 43°33' E 009°04'2019.9
2014-Sep-13 14:33N 43°50' E 008°51'2019.9
2014-Sep-13 13:33N 44°07' E 008°36'1111.2
2014-Sep-13 12:32N 44°16' E 008°27'4 4.6
2014-Sep-13 11:33N 44°13' E 008°31'1919.4
2014-Sep-13 10:33N 43°56' E 008°44'2020.0
2014-Sep-13 09:33N 43°39' E 008°59'2020.3
2014-Sep-13 08:33N 43°21' E 009°13'2020.1
2014-Sep-13 07:33N 43°04' E 009°27'19 3.7
2014-Sep-13 02:17N 43°03' E 009°01'5017.4
2014-Sep-12 23:25N 42°59' E 007°53'1517.4
2014-Sep-12 22:32N 42°59' E 007°32'2117.4
2014-Sep-12 21:19N 42°58' E 007°03'1317.5
2014-Sep-12 20:34N 42°57' E 006°45'1717.4
2014-Sep-12 19:33N 42°56' E 006°21'1616.0
2014-Sep-12 18:33N 43°02' E 006°01'6 1.4
2014-Sep-12 14:05N 43°07' E 005°56'0 0.0
2014-Sep-12 12:24N 43°07' E 005°56'0 0.0
2014-Sep-12 11:10N 43°07' E 005°56'0 0.0
2014-Sep-12 10:20N 43°07' E 005°56'0 0.0
2014-Sep-12 09:24N 43°07' E 005°56'0 0.0
2014-Sep-12 08:33N 43°07' E 005°56'0 0.0
2014-Sep-12 07:33N 43°07' E 005°56'0 0.0
2014-Sep-12 06:33N 43°07' E 005°56'0 0.0
2014-Sep-12 05:33N 43°07' E 005°56'5 5.3
2014-Sep-12 04:33N 43°03' E 005°60'1212.2
2014-Sep-12 03:33N 42°53' E 006°11'1212.1
2014-Sep-12 02:33N 42°47' E 006°25'  
Track history (hours):
 
Tides and Currents Weather Stations Pressure Air Temp Water Temp Dewpoint Dewpoint Depression Visibility Wind Speed Wind Dir Waves Ship Positions

Mega Smeralda

Last reported at 2014-Sep-21 21:34 UTC. Time now 2014-Sep-21 22:12 UTC.
Position N 42°44' E 006°35'.

Length 171 m; draft 6.3 m.

Type: Passenger vessel. MMSI: 247228600.

Date/timePositionNaut miles runAvg speedWind from/ knotsBaromVisibWave heightAir tempDewpointWater temp
2014-Sep-21 21:34N 42°44' E 006°35'1514.8
2014-Sep-21 20:33N 42°52' E 006°18'1515.1
2014-Sep-21 19:34N 43°01' E 006°01'7 7.1
2014-Sep-21 18:32N 43°07' E 005°56'0 0.0
2014-Sep-21 17:33N 43°07' E 005°56'0 0.0
2014-Sep-21 16:33N 43°07' E 005°56'0 0.0
2014-Sep-21 15:33N 43°07' E 005°56'0 0.0
2014-Sep-21 14:32N 43°07' E 005°56'0 0.0
2014-Sep-21 13:33N 43°07' E 005°56'0 0.0
2014-Sep-21 12:32N 43°07' E 005°56'0 0.0
2014-Sep-21 11:33N 43°07' E 005°56'0 0.0
2014-Sep-21 10:30N 43°07' E 005°56'0 0.0
2014-Sep-21 09:33N 43°07' E 005°56'0 0.0
2014-Sep-21 08:33N 43°07' E 005°56'0 0.0
2014-Sep-21 07:34N 43°07' E 005°56'0 0.0
2014-Sep-21 06:34N 43°07' E 005°56'9 9.5
2014-Sep-21 05:33N 42°59' E 006°03'1817.7
2014-Sep-21 04:33N 42°56' E 006°27'1919.3
2014-Sep-21 03:33N 42°58' E 006°53'1919.1
2014-Sep-21 02:33N 42°59' E 007°19'1919.2
2014-Sep-21 01:33N 42°60' E 007°45'1919.3
2014-Sep-21 00:33N 43°01' E 008°11'1919.2
2014-Sep-20 23:33N 43°02' E 008°38'2119.1
2014-Sep-20 22:28N 43°03' E 009°06'1718.3
2014-Sep-20 21:32N 43°02' E 009°30'7 2.3
2014-Sep-20 18:24N 42°55' E 009°33'1618.6
2014-Sep-20 17:33N 43°06' E 009°18'2020.3
2014-Sep-20 16:33N 43°13' E 008°52'2019.9
2014-Sep-20 15:33N 43°19' E 008°26'2119.3
2014-Sep-20 14:29N 43°28' E 007°60'1819.4
2014-Sep-20 13:33N 43°34' E 007°37'1616.0
2014-Sep-20 12:33N 43°42' E 007°17'2 2.4
2014-Sep-20 11:33N 43°39' E 007°19'4020.2
2014-Sep-20 09:33N 43°24' E 008°10'2020.4
2014-Sep-20 08:33N 43°18' E 008°37'1919.5
2014-Sep-20 07:33N 43°10' E 009°01'1919.3
2014-Sep-20 06:33N 43°03' E 009°26'9 2.5
2014-Sep-20 03:09N 42°55' E 009°31'1117.5
2014-Sep-20 02:31N 43°04' E 009°22'10019.2
2014-Sep-19 21:20N 42°58' E 007°06'1418.6
2014-Sep-19 20:33N 42°57' E 006°46'1818.0
2014-Sep-19 19:33N 42°56' E 006°21'1616.1
2014-Sep-19 18:33N 43°02' E 006°01'6 6.4
2014-Sep-19 17:33N 43°07' E 005°56'0 0.0
2014-Sep-19 16:33N 43°07' E 005°56'2 1.9
2014-Sep-19 15:33N 43°05' E 005°57'1616.1
2014-Sep-19 14:33N 42°53' E 006°12'1717.3
2014-Sep-19 13:33N 42°44' E 006°32'7 0.4
2014-Sep-18 21:33N 42°50' E 006°28'1515.2
2014-Sep-18 20:33N 42°56' E 006°09'1413.6
2014-Sep-18 19:33N 43°05' E 005°56'2 1.8
2014-Sep-18 18:33N 43°07' E 005°56'1 1.2
2014-Sep-18 17:33N 43°06' E 005°55'1514.8
2014-Sep-18 16:33N 42°55' E 006°09'1817.9
2014-Sep-18 15:33N 42°46' E 006°30'1918.1
2014-Sep-18 14:32N 42°36' E 006°51'1818.1
2014-Sep-18 13:33N 42°27' E 007°12'39 2.4
2014-Sep-17 21:15N 42°48' E 006°27'1115.7
2014-Sep-17 20:33N 42°53' E 006°14'1515.0
2014-Sep-17 19:33N 43°03' E 005°59'4 4.1
2014-Sep-17 18:33N 43°07' E 005°56'0 0.0
2014-Sep-17 17:33N 43°07' E 005°56'0 0.0
2014-Sep-17 16:33N 43°07' E 005°56'0 0.0
2014-Sep-17 15:32N 43°07' E 005°56'0 0.0
2014-Sep-17 14:32N 43°07' E 005°56'0 0.0
2014-Sep-17 13:29N 43°07' E 005°56'0 0.0
2014-Sep-17 12:32N 43°07' E 005°56'0 0.0
2014-Sep-17 11:11N 43°07' E 005°56'0 0.0
2014-Sep-17 10:30N 43°07' E 005°56'0 0.0
2014-Sep-17 09:33N 43°07' E 005°56'0 0.0
2014-Sep-17 08:32N 43°07' E 005°56'0 0.0
2014-Sep-17 07:33N 43°07' E 005°56'0 0.0
2014-Sep-17 06:33N 43°07' E 005°56'0 0.0
2014-Sep-17 05:33N 43°07' E 005°56'5 4.6
2014-Sep-17 04:34N 43°03' E 005°60'1111.4
2014-Sep-17 03:34N 42°55' E 006°10'1212.2
2014-Sep-17 02:33N 42°48' E 006°24'1212.4
2014-Sep-17 01:33N 42°41' E 006°38'1312.6
2014-Sep-17 00:33N 42°35' E 006°53'1312.4
2014-Sep-16 23:32N 42°28' E 007°08'2512.1
2014-Sep-16 21:26N 42°15' E 007°37'1416.1
2014-Sep-16 20:33N 42°07' E 007°53'1818.0
2014-Sep-16 19:34N 41°58' E 008°14'17 3.9
2014-Sep-16 15:08N 41°50' E 008°34'10117.8
2014-Sep-16 09:27N 42°37' E 006°34'1617.5
2014-Sep-16 08:33N 42°45' E 006°15'1716.6
2014-Sep-16 07:33N 42°59' E 006°02'9 9.5
2014-Sep-16 06:33N 43°07' E 005°56'0 0.0
2014-Sep-16 05:33N 43°07' E 005°56'6 6.1
2014-Sep-16 04:33N 43°02' E 005°60'1514.6
2014-Sep-16 03:33N 42°57' E 006°19'1717.0
2014-Sep-16 02:33N 42°56' E 006°42'1716.9
2014-Sep-16 01:33N 42°58' E 007°05'2516.7
2014-Sep-16 00:04N 42°59' E 007°39'1617.1
2014-Sep-15 23:07N 43°00' E 008°01'1217.1
2014-Sep-15 22:25N 43°01' E 008°17'1517.0
2014-Sep-15 21:31N 43°02' E 008°38'2017.1
2014-Sep-15 20:19N 43°02' E 009°06'1316.8
2014-Sep-15 19:31N 43°03' E 009°24'104 4.7
2014-Sep-14 21:19N 42°57' E 007°02'1317.3
2014-Sep-14 20:33N 42°57' E 006°44'1717.1
2014-Sep-14 19:34N 42°56' E 006°21'1615.9
2014-Sep-14 18:33N 43°02' E 006°00'6 6.1
2014-Sep-14 17:33N 43°07' E 005°56'0 0.0
2014-Sep-14 16:32N 43°07' E 005°56'0 0.0
2014-Sep-14 15:33N 43°07' E 005°56'0 0.0
2014-Sep-14 14:31N 43°07' E 005°56'0 0.0
2014-Sep-14 13:33N 43°07' E 005°56'0 0.0
2014-Sep-14 12:31N 43°07' E 005°56'0 0.0
2014-Sep-14 11:33N 43°07' E 005°56'0 0.0
2014-Sep-14 10:33N 43°07' E 005°56'0 0.0
2014-Sep-14 09:33N 43°07' E 005°56'0 0.0
2014-Sep-14 08:33N 43°07' E 005°56'0 0.0
2014-Sep-14 07:33N 43°07' E 005°56'0 0.0
2014-Sep-14 06:33N 43°07' E 005°56'7 6.7
2014-Sep-14 05:33N 43°01' E 006°01'1817.8
2014-Sep-14 04:33N 42°56' E 006°24'1918.8
2014-Sep-14 03:33N 42°57' E 006°50'1818.1
2014-Sep-14 02:33N 42°58' E 007°15'9518.6
2014-Sep-13 21:27N 43°03' E 009°25'20 3.8
2014-Sep-13 16:13N 43°21' E 009°13'1319.6
2014-Sep-13 15:33N 43°33' E 009°04'2019.9
2014-Sep-13 14:33N 43°50' E 008°51'2019.9
2014-Sep-13 13:33N 44°07' E 008°36'1111.2
2014-Sep-13 12:32N 44°16' E 008°27'4 4.6
2014-Sep-13 11:33N 44°13' E 008°31'1919.4
2014-Sep-13 10:33N 43°56' E 008°44'2020.0
2014-Sep-13 09:33N 43°39' E 008°59'2020.3
2014-Sep-13 08:33N 43°21' E 009°13'2020.1
2014-Sep-13 07:33N 43°04' E 009°27'19 3.7
2014-Sep-13 02:17N 43°03' E 009°01'5017.4
2014-Sep-12 23:25N 42°59' E 007°53'1517.4
2014-Sep-12 22:32N 42°59' E 007°32'2117.4
2014-Sep-12 21:19N 42°58' E 007°03'1317.5
2014-Sep-12 20:34N 42°57' E 006°45'1717.4
2014-Sep-12 19:33N 42°56' E 006°21'1616.0
2014-Sep-12 18:33N 43°02' E 006°01'6 1.4
2014-Sep-12 14:05N 43°07' E 005°56'0 0.0
2014-Sep-12 12:24N 43°07' E 005°56'0 0.0
2014-Sep-12 11:10N 43°07' E 005°56'0 0.0
2014-Sep-12 10:20N 43°07' E 005°56'0 0.0
2014-Sep-12 09:24N 43°07' E 005°56'0 0.0
2014-Sep-12 08:33N 43°07' E 005°56'0 0.0
2014-Sep-12 07:33N 43°07' E 005°56'0 0.0
2014-Sep-12 06:33N 43°07' E 005°56'0 0.0
2014-Sep-12 05:33N 43°07' E 005°56'5 5.3
2014-Sep-12 04:33N 43°03' E 005°60'1212.2
2014-Sep-12 03:33N 42°53' E 006°11'1212.1
2014-Sep-12 02:33N 42°47' E 006°25'  

Dump ship's entire track history